Time;durP1;ratioP1;P1;durP2;ratioP2;P2;SDS_P1;SDS_P2;PMS_P1;PMS_P2;Temp;Humidity;BMP_temperature;BMP_pressure;BME280_temperature;BME280_humidity;BME280_pressure;Samples;Min_cycle;Max_cycle;Signal;HPM_P1;HPM_P2
2023/07/24 00:00:48;;;;;;;15.18;10.88;;;;;;;-144.30;47.74;83897.84;5009376;28;20745;-53
2023/07/24 00:03:15;;;;;;;16.40;9.32;;;;;;;-144.30;47.77;83899.84;5009217;28;20617;-53
2023/07/24 00:05:44;;;;;;;10.02;9.13;;;;;;;-144.30;47.72;83965.41;5008999;28;20286;-52
2023/07/24 00:08:10;;;;;;;10.45;8.50;;;;;;;-144.30;47.72;83937.59;5009254;28;20212;-52
2023/07/24 00:10:37;;;;;;;9.88;8.13;;;;;;;-144.30;48.10;83969.38;5008784;28;20205;-52
2023/07/24 00:13:04;;;;;;;9.73;7.68;;;;;;;-144.30;48.69;84001.19;5008784;28;20690;-52
2023/07/24 00:15:31;;;;;;;11.80;8.15;;;;;;;-144.30;48.81;84009.13;5008951;28;20233;-53
2023/07/24 00:17:58;;;;;;;8.80;8.00;;;;;;;-144.30;48.76;84021.06;5008833;28;20667;-52
2023/07/24 00:20:26;;;;;;;9.18;8.27;;;;;;;-144.30;49.03;83979.31;5008605;28;20199;-47
2023/07/24 00:22:54;;;;;;;11.10;9.07;;;;;;;-144.30;49.01;84013.09;5008875;28;20690;-48
2023/07/24 00:25:21;;;;;;;9.75;8.75;;;;;;;-144.30;49.55;84029.00;5011049;28;20197;-49
2023/07/24 00:27:47;;;;;;;12.15;8.40;;;;;;;-144.30;50.09;84040.91;5012463;28;20213;-47
2023/07/24 00:30:14;;;;;;;11.50;9.02;;;;;;;-144.30;50.82;84068.75;5012159;28;20198;-47
2023/07/24 00:32:41;;;;;;;13.77;8.10;;;;;;;-144.30;51.88;84052.84;5012201;28;20209;-47
2023/07/24 00:35:09;;;;;;;10.98;8.98;;;;;;;-144.30;53.09;84076.69;5021355;28;20690;-48
2023/07/24 00:37:36;;;;;;;11.10;9.02;;;;;;;-144.30;55.57;84092.59;5020074;28;20198;-48
2023/07/24 00:40:05;;;;;;;12.23;8.73;;;;;;;-144.30;58.11;84056.81;5021151;28;20198;-48
2023/07/24 00:42:32;;;;;;;12.85;8.75;;;;;;;-144.30;59.92;84128.34;5022141;28;20201;-47
2023/07/24 00:44:59;;;;;;;9.98;9.02;;;;;;;-144.30;60.39;84102.53;5020386;28;20194;-51
2023/07/24 00:47:27;;;;;;;9.88;8.85;;;;;;;-144.30;61.85;84132.34;5028737;28;20205;-48
2023/07/24 00:49:55;;;;;;;10.25;8.45;;;;;;;-144.30;63.08;84112.47;5018785;28;20217;-48
2023/07/24 00:52:22;;;;;;;11.45;8.25;;;;;;;-144.30;65.11;84124.38;5026741;28;20197;-53
2023/07/24 00:54:50;;;;;;;12.60;9.60;;;;;;;-144.30;66.63;84154.19;5031965;28;20248;-52
2023/07/24 00:57:18;;;;;;;9.15;8.25;;;;;;;-144.30;68.91;84180.03;5031790;28;20733;-47
2023/07/24 00:59:45;;;;;;;9.63;8.70;;;;;;;-144.30;70.03;84215.78;5031579;28;20204;-52
2023/07/24 01:02:13;;;;;;;13.68;9.23;;;;;;;-144.30;71.38;84184.00;5031247;28;20205;-52
2023/07/24 01:04:40;;;;;;;10.30;9.23;;;;;;;-144.30;72.78;84233.69;5017050;28;20673;-52
2023/07/24 01:07:07;;;;;;;10.68;9.68;;;;;;;-144.30;73.84;84201.88;5011827;28;20654;-48
2023/07/24 01:09:34;;;;;;;12.40;9.60;;;;;;;-144.30;74.93;84231.69;5011548;28;20666;-52
2023/07/24 01:12:09;;;;;;;13.60;9.52;;;;;;;-144.30;76.92;84223.75;5011395;28;25072;-52
2023/07/24 01:14:45;;;;;;;14.05;9.77;;;;;;;-144.30;78.40;84245.59;5011587;28;20189;-52
2023/07/24 01:17:17;;;;;;;12.65;9.60;;;;;;;-144.30;79.76;84283.38;5011101;28;25059;-52
2023/07/24 01:19:48;;;;;;;12.68;9.18;;;;;;;-144.30;81.19;84299.25;5011600;28;20556;-48
2023/07/24 01:22:26;;;;;;;12.50;9.80;;;;;;;-144.30;82.19;84315.16;5011648;28;20606;-52
2023/07/24 01:25:05;;;;;;;10.63;9.65;;;;;;;-144.30;82.64;84279.38;5011452;28;20200;-48
2023/07/24 01:27:33;;;;;;;9.32;8.52;;;;;;;-144.30;84.43;84305.22;5011281;28;20202;-52
2023/07/24 01:30:00;;;;;;;9.77;8.52;;;;;;;-144.30;85.41;84315.16;5011106;28;20213;-52
2023/07/24 01:32:27;;;;;;;9.30;8.40;;;;;;;-144.30;85.74;84295.28;5011281;28;20700;-52
2023/07/24 01:34:54;;;;;;;12.68;8.80;;;;;;;-144.30;87.52;84311.19;5011365;28;20229;-48
2023/07/24 01:37:23;;;;;;;9.00;8.10;;;;;;;-144.30;88.56;84279.38;5010213;28;20202;-49
2023/07/24 01:39:51;;;;;;;12.23;9.43;;;;;;;-144.30;89.96;84309.19;5011002;28;20876;-49
2023/07/24 01:42:18;;;;;;;10.18;8.98;;;;;;;-144.30;90.69;84307.22;5011313;28;20575;-49
2023/07/24 01:44:51;;;;;;;11.00;9.93;;;;;;;-144.30;91.87;84313.19;5010880;28;20197;-48
2023/07/24 01:47:18;;;;;;;10.73;9.73;;;;;;;-144.30;93.22;84370.81;5010977;28;20209;-48
2023/07/24 01:49:45;;;;;;;11.07;9.63;;;;;;;-144.30;94.52;84376.78;5010757;28;20607;-52
2023/07/24 01:52:12;;;;;;;11.35;10.18;;;;;;;-144.30;95.41;84309.19;5010535;28;20198;-52
2023/07/24 01:54:39;;;;;;;10.90;9.80;;;;;;;-144.30;96.09;84329.06;5010543;28;20217;-52
2023/07/24 01:57:06;;;;;;;10.73;9.57;;;;;;;-144.30;97.10;84249.59;5010780;28;20594;-52
2023/07/24 01:59:33;;;;;;;14.00;10.63;;;;;;;-144.30;97.99;84396.66;5010690;28;20322;-52
2023/07/24 02:02:02;;;;;;;11.63;10.45;;;;;;;-144.30;98.48;84358.88;5010505;28;20212;-52
2023/07/24 02:04:27;;;;;;;11.80;10.50;;;;;;;-144.30;98.91;84398.63;5023393;28;20239;-52
2023/07/24 02:06:54;;;;;;;13.25;10.77;;;;;;;-144.30;99.90;84394.66;5030147;28;20597;-53
2023/07/24 02:09:21;;;;;;;16.17;11.57;;;;;;;-144.30;100.00;84422.47;5030202;28;20197;-52
2023/07/24 02:11:48;;;;;;;12.18;10.98;;;;;;;-144.30;100.00;84386.72;5030186;28;20292;-52
2023/07/24 02:14:17;;;;;;;17.55;11.85;;;;;;;-144.30;100.00;84446.31;5030147;28;20201;-52
2023/07/24 02:16:43;;;;;;;12.60;11.32;;;;;;;-144.30;100.00;84434.41;5030066;28;20197;-53
2023/07/24 02:19:12;;;;;;;17.35;11.40;;;;;;;-144.30;100.00;84414.53;5029863;28;20201;-52
2023/07/24 02:21:40;;;;;;;13.25;11.93;;;;;;;-144.30;100.00;84462.22;5029865;28;20205;-52
2023/07/24 02:24:07;;;;;;;19.77;12.95;;;;;;;-144.30;100.00;84430.44;5029911;28;20201;-52
2023/07/24 02:26:34;;;;;;;18.85;12.73;;;;;;;-144.30;100.00;84396.66;5030066;28;20220;-48
2023/07/24 02:29:01;;;;;;;19.98;13.45;;;;;;;-144.30;100.00;84372.78;5029792;28;20197;-48
2023/07/24 02:31:28;;;;;;;16.48;13.57;;;;;;;-144.30;100.00;84388.69;5029954;28;20197;-52
2023/07/24 02:33:54;;;;;;;19.08;14.40;;;;;;;-144.30;100.00;84414.53;5029753;28;20194;-52
2023/07/24 02:36:23;;;;;;;19.23;14.38;;;;;;;-144.30;100.00;84422.47;5029594;28;20217;-52
2023/07/24 02:38:50;;;;;;;22.27;16.33;;;;;;;-144.30;100.00;84406.59;5029936;28;20705;-52
2023/07/24 02:41:16;;;;;;;25.58;18.05;;;;;;;-144.30;100.00;84380.75;5029638;28;20201;-52
2023/07/24 02:43:43;;;;;;;21.50;18.17;;;;;;;-144.30;100.00;84398.63;5029724;28;20202;-52
2023/07/24 02:46:10;;;;;;;25.52;17.92;;;;;;;-144.30;100.00;84366.84;5029426;28;20197;-52
2023/07/24 02:48:37;;;;;;;23.52;19.33;;;;;;;-144.30;100.00;84410.56;5029112;28;20198;-50
2023/07/24 02:51:04;;;;;;;31.00;19.92;;;;;;;-144.30;100.00;84414.53;5029248;28;20197;-52
2023/07/24 02:53:32;;;;;;;28.20;20.15;;;;;;;-144.30;100.00;84412.53;5029616;28;20221;-52
2023/07/24 02:55:59;;;;;;;27.63;19.85;;;;;;;-144.30;100.00;84428.44;5029057;28;20221;-52
2023/07/24 02:58:26;;;;;;;30.05;18.95;;;;;;;-144.30;100.00;84410.56;5029525;28;20196;-52
2023/07/24 03:00:53;;;;;;;29.95;19.35;;;;;;;-144.30;100.00;84436.38;5029232;28;20617;-50
2023/07/24 03:03:20;;;;;;;36.95;19.52;;;;;;;-144.30;100.00;84442.34;5029018;28;20235;-47
2023/07/24 03:05:47;;;;;;;31.42;18.35;;;;;;;-144.30;100.00;84428.44;5029296;28;20201;-48
2023/07/24 03:08:13;;;;;;;37.75;20.60;;;;;;;-144.30;100.00;84472.16;5028711;28;20203;-48
2023/07/24 03:10:42;;;;;;;32.85;20.00;;;;;;;-144.30;100.00;84444.34;5029100;28;20585;-48
2023/07/24 03:13:09;;;;;;;34.65;19.83;;;;;;;-144.30;100.00;84486.06;5029220;28;20308;-52
2023/07/24 03:15:36;;;;;;;31.92;20.15;;;;;;;-144.30;100.00;84474.16;5028045;28;20225;-52
2023/07/24 03:18:03;;;;;;;38.80;19.92;;;;;;;-144.30;100.00;84468.19;5029279;28;20224;-52
2023/07/24 03:20:30;;;;;;;39.10;21.00;;;;;;;-144.30;100.00;84517.88;5029274;28;20201;-49
2023/07/24 03:22:57;;;;;;;35.97;20.98;;;;;;;-144.30;100.00;84480.13;5025876;28;20584;-53
2023/07/24 03:25:24;;;;;;;32.35;20.38;;;;;;;-144.30;100.00;84470.19;5012044;28;20225;-48
2023/07/24 03:27:52;;;;;;;36.90;21.25;;;;;;;-144.30;100.00;84478.13;5009412;28;20204;-52
2023/07/24 03:30:19;;;;;;;37.08;22.05;;;;;;;-144.30;100.00;84505.94;5016459;28;20212;-49
2023/07/24 03:32:46;;;;;;;40.42;22.60;;;;;;;-144.30;100.00;84511.91;5014860;28;20193;-53
2023/07/24 03:35:13;;;;;;;39.92;22.65;;;;;;;-144.30;100.00;84454.28;5019748;28;20579;-49
2023/07/24 03:37:40;;;;;;;35.55;21.75;;;;;;;-144.30;100.00;84492.03;5018537;28;20665;-52
2023/07/24 03:40:08;;;;;;;39.70;22.13;;;;;;;-144.30;100.00;84416.50;5023777;28;20284;-50
2023/07/24 03:42:35;;;;;;;36.55;21.73;;;;;;;-144.30;100.00;84478.13;5028820;28;20288;-52
2023/07/24 03:45:04;;;;;;;40.03;23.80;;;;;;;-144.30;100.00;84456.25;5027633;28;20448;-53
2023/07/24 03:47:31;;;;;;;33.85;21.83;;;;;;;-144.30;100.00;84442.34;5029277;28;20713;-48
2023/07/24 03:49:58;;;;;;;33.42;21.55;;;;;;;-144.30;100.00;84398.63;5028827;28;20232;-49
2023/07/24 03:52:25;;;;;;;35.63;21.33;;;;;;;-144.30;100.00;84414.53;5028803;28;20611;-47
2023/07/24 03:54:52;;;;;;;31.25;20.05;;;;;;;-144.30;100.00;84394.66;5023091;28;20193;-53
2023/07/24 03:57:19;;;;;;;31.85;20.75;;;;;;;-144.30;100.00;84406.59;5008741;28;20224;-52
2023/07/24 03:59:46;;;;;;;30.13;19.98;;;;;;;-144.30;100.00;84398.63;5010558;28;20197;-50
2023/07/24 04:02:14;;;;;;;35.13;22.08;;;;;;;-144.30;100.00;84358.88;5012936;28;20573;-53
2023/07/24 04:04:41;;;;;;;36.97;21.67;;;;;;;-144.30;100.00;84358.88;5012717;28;20702;-48
2023/07/24 04:07:08;;;;;;;33.58;21.55;;;;;;;-144.30;99.88;84382.72;5012500;28;20249;-53
2023/07/24 04:09:35;;;;;;;30.45;20.70;;;;;;;-144.30;98.55;84275.41;5012436;28;20202;-47
2023/07/24 04:12:02;;;;;;;31.60;20.52;;;;;;;-144.30;94.73;84193.94;5012357;28;20204;-47
2023/07/24 04:14:28;;;;;;;26.92;18.73;;;;;;;-144.30;92.16;84025.03;5011343;28;20286;-48
2023/07/24 04:16:56;;;;;;;28.67;19.15;;;;;;;-144.30;86.87;83866.06;5012589;28;20225;-46
2023/07/24 04:19:24;;;;;;;26.52;18.45;;;;;;;-144.30;82.18;83673.31;5012570;28;20233;-47
2023/07/24 04:21:51;;;;;;;26.65;18.45;;;;;;;-144.30;79.22;83550.13;5012368;28;20198;-48
2023/07/24 04:24:18;;;;;;;25.60;16.38;;;;;;;-144.30;76.30;83422.97;5012255;28;20297;-47
2023/07/24 04:26:45;;;;;;;21.75;16.77;;;;;;;-144.30;75.20;83385.22;5012235;28;20206;-47
2023/07/24 04:29:12;;;;;;;27.40;15.85;;;;;;;-144.30;73.60;83432.91;5012182;28;20208;-47
2023/07/24 04:31:38;;;;;;;23.33;15.13;;;;;;;-144.30;74.04;83476.63;5012349;28;20300;-46
2023/07/24 04:34:05;;;;;;;25.10;15.48;;;;;;;-144.30;75.04;83532.25;5014826;28;20200;-48
2023/07/24 04:36:34;;;;;;;23.83;14.68;;;;;;;-144.30;75.56;83564.03;5021167;28;20716;-54
2023/07/24 04:39:00;;;;;;;20.52;15.10;;;;;;;-144.30;74.87;83480.59;5017942;28;20666;-52
2023/07/24 04:41:27;;;;;;;22.25;15.23;;;;;;;-144.30;73.93;83480.59;5012241;28;20595;-53
2023/07/24 04:43:54;;;;;;;19.50;14.95;;;;;;;-144.30;74.50;83534.22;5012373;28;20589;-53
2023/07/24 04:46:21;;;;;;;24.88;17.15;;;;;;;-144.30;76.89;83623.66;5012181;28;20200;-53
2023/07/24 04:48:48;;;;;;;24.17;14.98;;;;;;;-144.30;78.50;83697.16;5012017;28;20208;-53
2023/07/24 04:51:15;;;;;;;25.08;15.07;;;;;;;-144.30;78.64;83691.19;5011812;28;20208;-48
2023/07/24 04:53:43;;;;;;;20.70;15.18;;;;;;;-144.30;77.96;83639.53;5011627;28;20205;-48
2023/07/24 04:56:10;;;;;;;27.15;16.05;;;;;;;-144.30;74.84;83424.97;5011476;28;20253;-53
2023/07/24 04:58:37;;;;;;;23.27;16.10;;;;;;;-144.30;72.55;83291.84;5011832;28;20209;-54
2023/07/24 05:01:05;;;;;;;27.23;16.40;;;;;;;-144.30;69.50;83115.03;5011896;28;20281;-46
2023/07/24 05:03:32;;;;;;;22.50;14.43;;;;;;;-144.30;67.38;82868.69;5024680;28;20232;-53
2023/07/24 05:05:59;;;;;;;20.77;15.93;;;;;;;-144.30;64.48;82771.38;5030203;28;20198;-54
2023/07/24 05:08:25;;;;;;;21.95;15.45;;;;;;;-144.30;58.03;82576.69;5031345;28;20193;-53
2023/07/24 05:10:58;;;;;;;18.70;14.73;;;;;;;-144.30;55.60;82378.06;5031207;28;20213;-47
2023/07/24 05:13:25;;;;;;;18.20;14.10;;;;;;;-144.30;53.96;82340.34;5031459;28;20695;-47
2023/07/24 05:15:52;;;;;;;22.65;14.38;;;;;;;-144.30;52.35;82211.25;5031295;28;20225;-53
2023/07/24 05:18:19;;;;;;;17.08;15.23;;;;;;;-144.30;51.17;82107.97;5031204;28;20263;-53
2023/07/24 05:20:47;;;;;;;21.88;16.58;;;;;;;-144.30;50.70;82129.81;5031080;28;20208;-52
2023/07/24 05:23:14;;;;;;;19.27;16.38;;;;;;;-144.30;49.73;82028.53;5030991;28;20194;-53
2023/07/24 05:25:41;;;;;;;18.73;15.05;;;;;;;-144.30;48.86;81994.75;5030979;28;20200;-53
2023/07/24 05:28:10;;;;;;;23.17;17.58;;;;;;;-144.30;49.10;81978.88;5030985;28;20205;-46
2023/07/24 05:30:37;;;;;;;21.15;17.20;;;;;;;-144.30;48.89;82066.25;5029955;28;20219;-47
2023/07/24 05:33:04;;;;;;;17.73;15.98;;;;;;;-144.30;49.32;82082.13;5029225;28;20203;-48
2023/07/24 05:35:31;;;;;;;22.25;16.27;;;;;;;-144.30;48.15;81939.16;5029878;28;20208;-47
2023/07/24 05:37:58;;;;;;;20.90;16.77;;;;;;;-144.30;47.18;81988.81;5030260;28;20201;-53
2023/07/24 05:40:25;;;;;;;21.20;15.65;;;;;;;-144.30;46.27;81784.25;5029905;28;20674;-52
2023/07/24 05:42:52;;;;;;;26.75;17.02;;;;;;;-144.30;46.63;81869.66;5030343;28;20208;-52
2023/07/24 05:45:20;;;;;;;19.38;16.63;;;;;;;-144.30;47.33;81915.31;5030544;28;20212;-53
2023/07/24 05:47:47;;;;;;;22.27;17.20;;;;;;;-144.30;47.09;82056.31;5030409;28;20228;-48
2023/07/24 05:50:14;;;;;;;23.92;16.60;;;;;;;-144.30;47.06;81955.03;5030706;28;20307;-53
2023/07/24 05:52:41;;;;;;;18.70;16.27;;;;;;;-144.30;45.57;81839.84;5030859;28;20205;-53
2023/07/24 05:55:09;;;;;;;19.60;17.08;;;;;;;-144.30;44.60;81764.38;5030599;28;20213;-47
2023/07/24 05:57:36;;;;;;;24.20;17.55;;;;;;;-144.30;44.62;81792.19;5030531;28;20229;-47
2023/07/24 06:00:04;;;;;;;17.75;15.90;;;;;;;-144.30;44.14;81692.91;5030404;28;20587;-49
2023/07/24 06:02:32;;;;;;;19.27;16.42;;;;;;;-144.30;44.20;81708.78;5030245;28;20578;-53
2023/07/24 06:04:59;;;;;;;22.63;16.65;;;;;;;-144.30;43.72;81627.38;5030105;28;20243;-49
2023/07/24 06:07:26;;;;;;;20.88;17.05;;;;;;;-144.30;43.38;81667.09;5030393;28;20684;-53
2023/07/24 06:09:53;;;;;;;19.45;15.48;;;;;;;-144.30;42.72;81601.56;5025988;28;20200;-53
2023/07/24 06:12:20;;;;;;;21.15;16.17;;;;;;;-144.30;41.86;81486.38;5016586;28;20201;-47
2023/07/24 06:14:47;;;;;;;19.92;15.77;;;;;;;-144.30;41.20;81313.63;5023757;28;20296;-53
2023/07/24 06:17:14;;;;;;;19.48;16.42;;;;;;;-144.30;40.96;81287.81;5027934;28;20224;-48
2023/07/24 06:19:42;;;;;;;22.30;16.20;;;;;;;-144.30;41.09;81440.72;5029938;28;20196;-48
2023/07/24 06:22:09;;;;;;;18.33;15.10;;;;;;;-144.30;41.17;81565.81;5028954;28;20280;-47
2023/07/24 06:24:36;;;;;;;18.38;15.15;;;;;;;-144.30;40.55;81504.25;5029688;28;20209;-48
2023/07/24 06:27:03;;;;;;;21.17;15.75;;;;;;;-144.30;40.27;81470.50;5029423;28;20193;-52
2023/07/24 06:29:30;;;;;;;19.40;15.23;;;;;;;-144.30;40.18;81440.72;5029412;28;20219;-46
2023/07/24 06:31:57;;;;;;;21.05;15.70;;;;;;;-144.30;39.61;81363.28;5029598;28;20193;-53
2023/07/24 06:34:23;;;;;;;25.23;15.13;;;;;;;-144.30;39.24;81331.50;5025517;28;20198;-53
2023/07/24 06:36:52;;;;;;;20.27;15.88;;;;;;;-144.30;39.31;81315.63;5009719;28;20301;-47
2023/07/24 06:39:19;;;;;;;18.15;16.08;;;;;;;-144.30;38.75;81236.19;5009564;28;20205;-48
2023/07/24 06:41:45;;;;;;;20.23;16.42;;;;;;;-144.30;39.18;81379.16;5030186;28;20198;-47
2023/07/24 06:44:12;;;;;;;19.45;15.45;;;;;;;-144.30;39.38;81488.38;5023612;28;20689;-49
2023/07/24 06:46:39;;;;;;;22.05;15.93;;;;;;;-144.30;39.70;81536.03;5034063;28;20200;-48
2023/07/24 06:49:06;;;;;;;18.02;16.05;;;;;;;-144.30;40.00;81530.06;5010063;28;20201;-52
2023/07/24 06:51:33;;;;;;;21.63;15.40;;;;;;;-144.30;39.75;81530.06;5009776;28;20589;-53
2023/07/24 06:54:02;;;;;;;19.90;16.45;;;;;;;-144.30;39.77;81625.38;5009460;28;20531;-53
2023/07/24 06:56:29;;;;;;;20.30;16.00;;;;;;;-144.30;40.50;81682.97;5009307;28;20798;-53
2023/07/24 06:58:56;;;;;;;21.52;15.95;;;;;;;-144.30;41.03;81780.28;5009313;28;20212;-52
2023/07/24 07:01:23;;;;;;;22.33;16.73;;;;;;;-144.30;41.59;81923.25;5009343;28;20202;-52
2023/07/24 07:03:50;;;;;;;19.15;16.35;;;;;;;-144.30;42.38;81984.81;5001794;28;20236;-52
2023/07/24 07:06:17;;;;;;;27.70;16.75;;;;;;;-144.30;42.39;82562.78;4989671;28;20201;-53
2023/07/24 07:08:44;;;;;;;19.63;16.48;;;;;;;-144.30;42.07;81885.53;5007397;28;20230;-52
2023/07/24 07:11:12;;;;;;;26.33;17.17;;;;;;;-144.30;41.83;81897.44;5008885;28;20202;-46
2023/07/24 07:13:39;;;;;;;24.58;17.55;;;;;;;-144.30;41.91;81861.69;5008823;28;20206;-54
2023/07/24 07:16:06;;;;;;;25.60;17.00;;;;;;;-144.30;41.79;81869.66;5008807;28;20198;-52
2023/07/24 07:18:33;;;;;;;22.17;16.25;;;;;;;-144.30;42.02;81919.28;5008957;28;20194;-52
2023/07/24 07:21:00;;;;;;;19.73;15.98;;;;;;;-144.30;42.17;81986.81;5008996;28;20202;-53
2023/07/24 07:23:27;;;;;;;21.02;16.30;;;;;;;-144.30;42.42;81964.97;5008785;28;20198;-53
2023/07/24 07:25:53;;;;;;;23.08;17.42;;;;;;;-144.30;42.17;82046.41;5008703;28;20692;-47
2023/07/24 07:28:22;;;;;;;21.73;16.55;;;;;;;-144.30;43.34;82201.31;5008743;28;20208;-52
2023/07/24 07:30:49;;;;;;;22.85;16.23;;;;;;;-144.30;43.64;82292.66;5009147;28;20712;-53
2023/07/24 07:33:15;;;;;;;21.98;16.40;;;;;;;-144.30;43.64;82237.06;5008903;28;20202;-52
2023/07/24 07:35:42;;;;;;;20.63;16.23;;;;;;;-144.30;42.93;82104.00;5012303;28;20198;-53
2023/07/24 07:38:09;;;;;;;20.42;17.05;;;;;;;-144.30;42.56;82008.66;5012707;28;20690;-47
2023/07/24 07:40:38;;;;;;;22.38;17.02;;;;;;;-144.30;42.95;82143.72;5011695;28;20197;-52
2023/07/24 07:43:05;;;;;;;21.50;15.60;;;;;;;-144.30;42.25;81957.03;5011542;28;20212;-47
2023/07/24 07:45:33;;;;;;;21.25;17.33;;;;;;;-144.30;41.12;81839.84;5012804;28;20205;-47
2023/07/24 07:48:00;;;;;;;18.30;16.45;;;;;;;-144.30;40.87;81714.75;5012729;28;20194;-53
2023/07/24 07:50:27;;;;;;;23.60;16.90;;;;;;;-144.30;39.65;81601.56;5012753;28;20301;-53
2023/07/24 07:52:54;;;;;;;18.92;16.13;;;;;;;-144.30;38.84;81416.88;5012353;28;20193;-52
2023/07/24 07:55:21;;;;;;;20.05;15.90;;;;;;;-144.30;38.57;81508.22;5012939;28;20587;-47
2023/07/24 07:57:48;;;;;;;20.27;15.98;;;;;;;-144.30;39.82;81728.66;5013292;28;20252;-54
2023/07/24 08:00:15;;;;;;;19.85;15.77;;;;;;;-144.30;38.78;81575.75;5013613;28;20678;-48
2023/07/24 08:02:44;;;;;;;21.42;15.30;;;;;;;-144.30;38.02;81414.91;5013658;28;20201;-48
2023/07/24 08:05:12;;;;;;;17.48;15.68;;;;;;;-144.30;37.02;81184.56;4994694;28;20320;-48
2023/07/24 08:07:39;;;;;;;17.23;15.02;;;;;;;-144.30;35.77;81043.59;4999036;28;20252;-47
2023/07/24 08:10:07;;;;;;;17.63;15.80;;;;;;;-144.30;35.95;81132.94;5013042;28;20202;-52
2023/07/24 08:12:34;;;;;;;22.33;15.15;;;;;;;-144.30;35.88;81117.06;5012946;28;20206;-48
2023/07/24 08:15:01;;;;;;;19.27;16.45;;;;;;;-144.30;36.55;81208.41;5012997;28;20592;-48
2023/07/24 08:17:28;;;;;;;23.90;17.25;;;;;;;-144.30;36.35;81101.19;5012585;28;20213;-52
2023/07/24 08:19:56;;;;;;;21.98;16.88;;;;;;;-144.30;36.07;80966.19;5012491;28;20240;-48
2023/07/24 08:22:23;;;;;;;19.98;17.60;;;;;;;-144.30;36.02;80944.34;5012219;28;20201;-48
2023/07/24 08:24:51;;;;;;;19.40;17.50;;;;;;;-144.30;36.49;81136.91;5012257;28;20209;-52
2023/07/24 08:27:18;;;;;;;18.98;16.63;;;;;;;-144.30;36.31;81170.69;5012044;28;20701;-53
2023/07/24 08:29:45;;;;;;;18.17;16.27;;;;;;;-144.30;36.55;81210.38;5012280;28;20197;-53
2023/07/24 08:32:12;;;;;;;21.80;18.10;;;;;;;-144.30;37.10;81279.88;5011760;28;20202;-47
2023/07/24 08:34:39;;;;;;;18.42;16.45;;;;;;;-144.30;37.20;81303.72;5011666;28;20229;-47
2023/07/24 08:37:08;;;;;;;20.30;16.95;;;;;;;-144.30;38.37;81508.22;5011927;28;20248;-48
2023/07/24 08:39:34;;;;;;;20.17;18.00;;;;;;;-144.30;38.93;81611.47;5012167;28;20217;-53
2023/07/24 08:42:09;;;;;;;18.83;16.83;;;;;;;-144.30;39.08;81696.88;5012439;28;20198;-52
2023/07/24 08:44:37;;;;;;;21.70;17.02;;;;;;;-144.30;39.41;81708.78;5012362;28;20205;-47
2023/07/24 08:47:05;;;;;;;26.63;17.38;;;;;;;-144.30;38.93;81619.44;5011893;28;20194;-52
2023/07/24 08:49:33;;;;;;;18.17;15.68;;;;;;;-144.30;38.27;81549.94;4998251;28;20237;-52
2023/07/24 08:52:04;;;;;;;18.83;16.55;;;;;;;-144.30;38.42;81532.06;4992867;28;20282;-46
2023/07/24 08:54:36;;;;;;;19.10;15.35;;;;;;;-144.30;38.27;81692.91;5011147;28;20233;-47
2023/07/24 08:57:03;;;;;;;19.65;15.35;;;;;;;-144.30;38.73;81605.53;5012195;28;20220;-47
2023/07/24 08:59:30;;;;;;;17.60;15.55;;;;;;;-144.30;38.88;81629.34;5011947;28;20212;-46
2023/07/24 09:01:57;;;;;;;19.13;16.48;;;;;;;-144.30;38.89;81579.72;5011909;28;20693;-52
2023/07/24 09:04:25;;;;;;;18.30;16.42;;;;;;;-144.30;38.59;81524.13;5011932;28;20252;-53
2023/07/24 09:06:52;;;;;;;22.88;15.48;;;;;;;-144.30;38.85;81607.50;5006117;28;20285;-49
2023/07/24 09:09:19;;;;;;;19.95;17.05;;;;;;;-144.30;38.49;81553.91;5009277;28;20206;-49
2023/07/24 09:11:53;;;;;;;17.27;15.57;;;;;;;-144.30;37.93;81420.84;5012006;28;20198;-47
2023/07/24 09:14:24;;;;;;;18.73;15.52;;;;;;;-144.30;39.19;81820.00;5000063;28;20205;-53
2023/07/24 09:17:02;;;;;;;16.90;14.77;;;;;;;-144.30;39.41;81790.22;5011820;28;20623;-53
2023/07/24 09:19:29;;;;;;;17.70;15.52;;;;;;;-144.30;39.10;81681.00;5011717;28;20199;-53
2023/07/24 09:21:56;;;;;;;16.30;14.68;;;;;;;-144.30;38.65;81953.06;5011774;28;20208;-46
2023/07/24 09:24:23;;;;;;;25.75;16.63;;;;;;;-144.30;38.49;81633.31;5011423;28;20415;-48
2023/07/24 09:26:53;;;;;;;18.48;14.98;;;;;;;-144.30;38.22;81601.56;5011378;28;20252;-47
2023/07/24 09:29:21;;;;;;;15.90;14.30;;;;;;;-144.30;38.03;81551.91;5011617;28;20648;-52
2023/07/24 09:31:48;;;;;;;14.20;12.75;;;;;;;-144.30;37.55;81557.88;5011692;28;20253;-47
2023/07/24 09:34:17;;;;;;;14.32;12.82;;;;;;;-144.30;37.57;81553.91;5011378;28;20213;-48
2023/07/24 09:36:44;;;;;;;14.70;13.25;;;;;;;-144.30;37.42;81581.69;5011512;28;20212;-52
2023/07/24 09:39:11;;;;;;;14.70;12.93;;;;;;;-144.30;37.81;81621.41;5010904;28;20209;-48
2023/07/24 09:41:39;;;;;;;15.52;13.55;;;;;;;-144.30;37.62;81514.19;5011657;28;20579;-49
2023/07/24 09:44:08;;;;;;;17.40;12.85;;;;;;;-144.30;37.09;81591.63;5009874;28;20205;-49
2023/07/24 09:46:35;;;;;;;13.80;12.50;;;;;;;-144.30;36.94;81585.66;5005965;28;20217;-53
2023/07/24 09:49:02;;;;;;;13.30;12.07;;;;;;;-144.30;37.30;81730.63;5002843;28;20202;-53
2023/07/24 09:51:32;;;;;;;17.20;13.55;;;;;;;-144.30;38.38;81935.19;5011168;28;20234;-53
2023/07/24 09:54:07;;;;;;;19.70;12.60;;;;;;;-144.30;38.73;81941.13;5010894;28;20668;-54
2023/07/24 09:56:35;;;;;;;14.80;12.75;;;;;;;-144.30;38.47;81883.53;5010526;28;20257;-54
2023/07/24 09:59:03;;;;;;;77.85;61.95;;;;;;;-144.30;38.46;81879.56;5010668;28;20229;-53
2023/07/24 10:01:33;;;;;;;62.92;53.10;;;;;;;-144.30;37.96;81732.63;5011047;28;20206;-53
2023/07/24 10:04:01;;;;;;;14.60;13.15;;;;;;;-144.30;37.11;81653.19;5019609;28;20763;-52
2023/07/24 10:06:31;;;;;;;17.67;13.40;;;;;;;-144.30;37.20;81609.50;5030391;28;20685;-53
2023/07/24 10:08:59;;;;;;;18.42;13.70;;;;;;;-144.30;37.25;81796.16;5030469;28;20202;-47
2023/07/24 10:11:27;;;;;;;15.00;13.40;;;;;;;-144.30;37.77;81744.53;5030750;28;20686;-50
2023/07/24 10:13:54;;;;;;;17.48;13.57;;;;;;;-144.30;37.84;81750.50;5030417;28;20304;-47
2023/07/24 10:16:21;;;;;;;15.85;12.88;;;;;;;-144.30;37.61;81784.25;5030503;28;20220;-54
2023/07/24 10:18:50;;;;;;;14.90;13.48;;;;;;;-144.30;38.01;81764.38;5029905;28;20308;-48
2023/07/24 10:21:17;;;;;;;16.02;13.82;;;;;;;-144.30;37.62;81732.63;5030596;28;20381;-54
2023/07/24 10:23:46;;;;;;;15.27;13.85;;;;;;;-144.30;37.25;81792.19;5030690;28;20288;-48
2023/07/24 10:26:14;;;;;;;14.52;13.02;;;;;;;-144.30;37.01;81633.31;5030366;28;20193;-53
2023/07/24 10:28:41;;;;;;;15.45;13.80;;;;;;;-144.30;37.55;81720.69;5030141;28;20189;-52
2023/07/24 10:31:22;;;;;;;16.73;14.55;;;;;;;-144.30;37.22;81641.28;5030155;28;20201;-53
2023/07/24 10:33:51;;;;;;;18.52;14.25;;;;;;;-144.30;36.67;81704.81;5030248;28;20197;-47
2023/07/24 10:36:19;;;;;;;14.85;13.35;;;;;;;-144.30;36.72;81790.22;5030374;28;20683;-53
2023/07/24 10:38:47;;;;;;;14.75;13.27;;;;;;;-144.30;37.18;81863.69;5030087;28;20229;-48
2023/07/24 10:41:14;;;;;;;15.10;13.50;;;;;;;-144.30;37.23;81911.34;5029987;28;20201;-52
2023/07/24 10:43:43;;;;;;;14.45;12.98;;;;;;;-144.30;37.82;81994.75;5029515;28;20217;-53
2023/07/24 10:46:10;;;;;;;18.20;14.50;;;;;;;-144.30;37.96;81986.81;5030073;28;20662;-53
2023/07/24 10:48:37;;;;;;;17.40;13.73;;;;;;;-144.30;38.46;82034.47;5029785;28;20196;-53
2023/07/24 10:51:10;;;;;;;14.30;12.75;;;;;;;-144.30;38.52;81998.72;5029864;28;20200;-53
2023/07/24 10:53:38;;;;;;;17.00;13.57;;;;;;;-144.30;38.45;82034.47;5029752;28;20196;-55
2023/07/24 10:56:06;;;;;;;17.92;14.90;;;;;;;-144.30;38.32;82046.41;5029744;28;20205;-53
2023/07/24 10:58:35;;;;;;;21.85;15.55;;;;;;;-144.30;37.74;82018.59;5029375;28;20220;-54
2023/07/24 11:01:05;;;;;;;16.85;13.95;;;;;;;-144.30;37.40;82018.59;5029740;28;20252;-53
2023/07/24 11:03:32;;;;;;;15.32;13.73;;;;;;;-144.30;37.04;82018.59;5029291;28;20228;-53